sensor_id;sensor_type;location;lat;lon;timestamp;temperature;humidity
10278;DHT22;5184;51.376;7.148;2023-03-25T00:00:13;8.50;1.00
10278;DHT22;5184;51.376;7.148;2023-03-25T00:02:40;8.60;99.90
10278;DHT22;5184;51.376;7.148;2023-03-25T00:05:07;8.60;1.00
10278;DHT22;5184;51.376;7.148;2023-03-25T00:07:34;8.60;99.90
10278;DHT22;5184;51.376;7.148;2023-03-25T00:10:02;8.50;99.90
10278;DHT22;5184;51.376;7.148;2023-03-25T00:12:29;8.50;99.90
10278;DHT22;5184;51.376;7.148;2023-03-25T00:14:56;8.50;99.90
10278;DHT22;5184;51.376;7.148;2023-03-25T00:17:23;8.50;99.90
10278;DHT22;5184;51.376;7.148;2023-03-25T00:19:49;8.40;99.90
10278;DHT22;5184;51.376;7.148;2023-03-25T00:22:17;8.40;99.90
10278;DHT22;5184;51.376;7.148;2023-03-25T00:24:43;8.40;99.90
10278;DHT22;5184;51.376;7.148;2023-03-25T00:27:09;8.40;99.90
10278;DHT22;5184;51.376;7.148;2023-03-25T00:29:37;8.50;99.90
10278;DHT22;5184;51.376;7.148;2023-03-25T00:32:04;8.50;1.00
10278;DHT22;5184;51.376;7.148;2023-03-25T00:34:31;8.50;1.00
10278;DHT22;5184;51.376;7.148;2023-03-25T00:36:57;8.50;99.90
10278;DHT22;5184;51.376;7.148;2023-03-25T00:39:24;8.50;99.90
10278;DHT22;5184;51.376;7.148;2023-03-25T00:41:51;8.50;99.90
10278;DHT22;5184;51.376;7.148;2023-03-25T00:44:19;8.60;99.90
10278;DHT22;5184;51.376;7.148;2023-03-25T00:46:46;8.60;99.90
10278;DHT22;5184;51.376;7.148;2023-03-25T00:49:13;8.60;99.90
10278;DHT22;5184;51.376;7.148;2023-03-25T00:51:41;8.60;99.90
10278;DHT22;5184;51.376;7.148;2023-03-25T00:54:08;8.60;1.00
10278;DHT22;5184;51.376;7.148;2023-03-25T00:56:35;8.70;33.30
10278;DHT22;5184;51.376;7.148;2023-03-25T00:59:02;8.60;32.00
10278;DHT22;5184;51.376;7.148;2023-03-25T01:01:28;8.70;1.00
10278;DHT22;5184;51.376;7.148;2023-03-25T01:03:56;8.70;55.10
10278;DHT22;5184;51.376;7.148;2023-03-25T01:06:24;8.60;99.90
10278;DHT22;5184;51.376;7.148;2023-03-25T01:08:50;8.60;99.90
10278;DHT22;5184;51.376;7.148;2023-03-25T01:11:19;8.60;99.90
10278;DHT22;5184;51.376;7.148;2023-03-25T01:13:45;8.60;99.90
10278;DHT22;5184;51.376;7.148;2023-03-25T01:16:12;8.60;61.80
10278;DHT22;5184;51.376;7.148;2023-03-25T01:18:39;8.60;99.90
10278;DHT22;5184;51.376;7.148;2023-03-25T01:21:07;8.60;1.00
10278;DHT22;5184;51.376;7.148;2023-03-25T01:23:34;8.70;1.00
10278;DHT22;5184;51.376;7.148;2023-03-25T01:26:01;8.60;1.00
10278;DHT22;5184;51.376;7.148;2023-03-25T01:28:29;8.60;99.90
10278;DHT22;5184;51.376;7.148;2023-03-25T01:31:01;8.60;1.00
10278;DHT22;5184;51.376;7.148;2023-03-25T01:33:28;8.60;1.00
10278;DHT22;5184;51.376;7.148;2023-03-25T01:35:55;8.60;1.00
10278;DHT22;5184;51.376;7.148;2023-03-25T01:38:23;8.60;1.00
10278;DHT22;5184;51.376;7.148;2023-03-25T01:40:51;8.60;99.90
10278;DHT22;5184;51.376;7.148;2023-03-25T01:43:18;8.60;99.90
10278;DHT22;5184;51.376;7.148;2023-03-25T01:45:45;8.70;1.00
10278;DHT22;5184;51.376;7.148;2023-03-25T01:48:15;8.70;1.00
10278;DHT22;5184;51.376;7.148;2023-03-25T01:50:41;8.70;1.00
10278;DHT22;5184;51.376;7.148;2023-03-25T01:53:07;8.70;1.00
10278;DHT22;5184;51.376;7.148;2023-03-25T01:55:34;8.70;99.90
10278;DHT22;5184;51.376;7.148;2023-03-25T01:58:01;8.70;99.90
10278;DHT22;5184;51.376;7.148;2023-03-25T02:00:27;8.70;1.00
10278;DHT22;5184;51.376;7.148;2023-03-25T02:02:54;8.70;1.00
10278;DHT22;5184;51.376;7.148;2023-03-25T02:05:21;8.70;99.90
10278;DHT22;5184;51.376;7.148;2023-03-25T02:07:47;8.70;99.90
10278;DHT22;5184;51.376;7.148;2023-03-25T02:10:14;8.70;1.00
10278;DHT22;5184;51.376;7.148;2023-03-25T02:12:41;8.70;1.00
10278;DHT22;5184;51.376;7.148;2023-03-25T02:15:08;8.70;1.00
10278;DHT22;5184;51.376;7.148;2023-03-25T02:17:40;8.70;1.00
10278;DHT22;5184;51.376;7.148;2023-03-25T02:20:12;8.70;99.90
10278;DHT22;5184;51.376;7.148;2023-03-25T02:22:45;8.60;99.90
10278;DHT22;5184;51.376;7.148;2023-03-25T02:25:12;8.70;1.00
10278;DHT22;5184;51.376;7.148;2023-03-25T02:27:53;8.70;99.90
10278;DHT22;5184;51.376;7.148;2023-03-25T02:30:29;8.70;99.90
10278;DHT22;5184;51.376;7.148;2023-03-25T02:35:43;8.40;99.90
10278;DHT22;5184;51.376;7.148;2023-03-25T02:38:15;8.70;99.90
10278;DHT22;5184;51.376;7.148;2023-03-25T02:40:44;8.60;99.90
10278;DHT22;5184;51.376;7.148;2023-03-25T02:43:11;8.60;99.90
10278;DHT22;5184;51.376;7.148;2023-03-25T02:45:39;8.60;1.00
10278;DHT22;5184;51.376;7.148;2023-03-25T02:48:10;8.60;1.00
10278;DHT22;5184;51.376;7.148;2023-03-25T02:50:36;8.60;1.00
10278;DHT22;5184;51.376;7.148;2023-03-25T02:53:04;8.60;1.00
10278;DHT22;5184;51.376;7.148;2023-03-25T02:55:29;8.60;1.00
10278;DHT22;5184;51.376;7.148;2023-03-25T02:57:56;8.50;1.00
10278;DHT22;5184;51.376;7.148;2023-03-25T03:00:25;8.60;78.50
10278;DHT22;5184;51.376;7.148;2023-03-25T03:02:54;8.50;28.20
10278;DHT22;5184;51.376;7.148;2023-03-25T03:05:23;8.60;1.00
10278;DHT22;5184;51.376;7.148;2023-03-25T03:07:52;8.60;1.00
10278;DHT22;5184;51.376;7.148;2023-03-25T03:10:23;8.50;1.00
10278;DHT22;5184;51.376;7.148;2023-03-25T03:13:09;8.50;1.00
10278;DHT22;5184;51.376;7.148;2023-03-25T03:16:11;8.50;99.90
10278;DHT22;5184;51.376;7.148;2023-03-25T03:18:27;8.40;99.90
10278;DHT22;5184;51.376;7.148;2023-03-25T03:21:03;8.50;99.90
10278;DHT22;5184;51.376;7.148;2023-03-25T03:23:28;8.40;1.00
10278;DHT22;5184;51.376;7.148;2023-03-25T03:25:56;8.40;99.90
10278;DHT22;5184;51.376;7.148;2023-03-25T03:28:24;8.40;99.90
10278;DHT22;5184;51.376;7.148;2023-03-25T03:30:57;8.40;99.90
10278;DHT22;5184;51.376;7.148;2023-03-25T03:33:25;8.40;99.90
10278;DHT22;5184;51.376;7.148;2023-03-25T03:35:52;8.40;99.90
10278;DHT22;5184;51.376;7.148;2023-03-25T03:38:19;8.30;99.90
10278;DHT22;5184;51.376;7.148;2023-03-25T03:40:49;8.30;99.90
10278;DHT22;5184;51.376;7.148;2023-03-25T03:43:26;8.30;1.00
10278;DHT22;5184;51.376;7.148;2023-03-25T03:45:52;8.30;1.00
10278;DHT22;5184;51.376;7.148;2023-03-25T03:48:22;8.20;8.30
10278;DHT22;5184;51.376;7.148;2023-03-25T03:50:49;8.10;99.90
10278;DHT22;5184;51.376;7.148;2023-03-25T03:53:17;8.10;1.00
10278;DHT22;5184;51.376;7.148;2023-03-25T03:55:43;8.00;1.00
10278;DHT22;5184;51.376;7.148;2023-03-25T03:58:11;8.00;34.10
10278;DHT22;5184;51.376;7.148;2023-03-25T04:00:39;7.70;99.90
10278;DHT22;5184;51.376;7.148;2023-03-25T04:03:05;7.90;99.90
10278;DHT22;5184;51.376;7.148;2023-03-25T04:05:30;7.90;99.90
10278;DHT22;5184;51.376;7.148;2023-03-25T04:07:58;7.90;99.90
10278;DHT22;5184;51.376;7.148;2023-03-25T04:10:42;7.90;99.90
10278;DHT22;5184;51.376;7.148;2023-03-25T04:13:08;7.90;39.70
10278;DHT22;5184;51.376;7.148;2023-03-25T04:15:34;8.00;1.00
10278;DHT22;5184;51.376;7.148;2023-03-25T04:18:01;8.00;99.90
10278;DHT22;5184;51.376;7.148;2023-03-25T04:20:27;8.10;1.00
10278;DHT22;5184;51.376;7.148;2023-03-25T04:22:54;8.10;1.00
10278;DHT22;5184;51.376;7.148;2023-03-25T04:25:20;8.20;90.40
10278;DHT22;5184;51.376;7.148;2023-03-25T04:27:47;8.20;1.00
10278;DHT22;5184;51.376;7.148;2023-03-25T04:30:15;8.30;1.00
10278;DHT22;5184;51.376;7.148;2023-03-25T04:32:43;8.20;1.00
10278;DHT22;5184;51.376;7.148;2023-03-25T04:35:14;8.30;1.00
10278;DHT22;5184;51.376;7.148;2023-03-25T04:37:41;8.20;1.00
10278;DHT22;5184;51.376;7.148;2023-03-25T04:40:08;8.10;99.90
10278;DHT22;5184;51.376;7.148;2023-03-25T04:42:34;8.00;99.90
10278;DHT22;5184;51.376;7.148;2023-03-25T04:45:04;7.90;1.00
10278;DHT22;5184;51.376;7.148;2023-03-25T04:47:30;7.90;1.00
10278;DHT22;5184;51.376;7.148;2023-03-25T04:49:57;7.90;1.00
10278;DHT22;5184;51.376;7.148;2023-03-25T04:52:24;7.90;99.90
10278;DHT22;5184;51.376;7.148;2023-03-25T04:54:52;7.90;99.90
10278;DHT22;5184;51.376;7.148;2023-03-25T04:57:19;8.00;99.90
10278;DHT22;5184;51.376;7.148;2023-03-25T04:59:46;7.90;91.90
10278;DHT22;5184;51.376;7.148;2023-03-25T05:02:12;8.00;99.90
10278;DHT22;5184;51.376;7.148;2023-03-25T05:04:39;8.00;24.70
10278;DHT22;5184;51.376;7.148;2023-03-25T05:07:09;8.10;94.80
10278;DHT22;5184;51.376;7.148;2023-03-25T05:09:37;8.10;1.00
10278;DHT22;5184;51.376;7.148;2023-03-25T05:12:03;8.10;1.00
10278;DHT22;5184;51.376;7.148;2023-03-25T05:14:30;8.10;1.00
10278;DHT22;5184;51.376;7.148;2023-03-25T05:16:56;8.10;99.90
10278;DHT22;5184;51.376;7.148;2023-03-25T05:19:24;8.20;99.90
10278;DHT22;5184;51.376;7.148;2023-03-25T05:21:51;8.20;99.90
10278;DHT22;5184;51.376;7.148;2023-03-25T05:24:18;8.10;1.00
10278;DHT22;5184;51.376;7.148;2023-03-25T05:26:45;8.00;99.90
10278;DHT22;5184;51.376;7.148;2023-03-25T05:29:13;7.90;1.00
10278;DHT22;5184;51.376;7.148;2023-03-25T05:31:42;7.80;99.90
10278;DHT22;5184;51.376;7.148;2023-03-25T05:34:08;7.80;99.90
10278;DHT22;5184;51.376;7.148;2023-03-25T05:36:35;7.70;99.90
10278;DHT22;5184;51.376;7.148;2023-03-25T05:39:03;7.60;1.00
10278;DHT22;5184;51.376;7.148;2023-03-25T05:41:30;7.60;1.00
10278;DHT22;5184;51.376;7.148;2023-03-25T05:43:58;7.80;1.00
10278;DHT22;5184;51.376;7.148;2023-03-25T05:46:24;7.60;99.90
10278;DHT22;5184;51.376;7.148;2023-03-25T05:48:52;7.70;99.90
10278;DHT22;5184;51.376;7.148;2023-03-25T05:51:24;7.70;99.90
10278;DHT22;5184;51.376;7.148;2023-03-25T05:53:47;7.80;31.00
10278;DHT22;5184;51.376;7.148;2023-03-25T05:56:17;7.90;1.00
10278;DHT22;5184;51.376;7.148;2023-03-25T05:58:44;7.90;1.00
10278;DHT22;5184;51.376;7.148;2023-03-25T06:01:12;7.90;1.00
10278;DHT22;5184;51.376;7.148;2023-03-25T06:03:41;7.90;1.00
10278;DHT22;5184;51.376;7.148;2023-03-25T06:06:07;7.90;1.00
10278;DHT22;5184;51.376;7.148;2023-03-25T06:08:36;8.00;1.00
10278;DHT22;5184;51.376;7.148;2023-03-25T06:11:03;8.00;1.00
10278;DHT22;5184;51.376;7.148;2023-03-25T06:13:30;8.00;1.00
10278;DHT22;5184;51.376;7.148;2023-03-25T06:15:56;8.00;1.00
10278;DHT22;5184;51.376;7.148;2023-03-25T06:18:24;8.00;15.50
10278;DHT22;5184;51.376;7.148;2023-03-25T06:20:52;8.00;1.00
10278;DHT22;5184;51.376;7.148;2023-03-25T06:23:19;8.00;1.00
10278;DHT22;5184;51.376;7.148;2023-03-25T06:25:48;8.00;1.00
10278;DHT22;5184;51.376;7.148;2023-03-25T06:28:16;8.00;1.00
10278;DHT22;5184;51.376;7.148;2023-03-25T06:30:42;8.00;1.00
10278;DHT22;5184;51.376;7.148;2023-03-25T06:33:08;8.00;1.00
10278;DHT22;5184;51.376;7.148;2023-03-25T06:35:35;8.00;1.00
10278;DHT22;5184;51.376;7.148;2023-03-25T06:38:02;8.00;1.00
10278;DHT22;5184;51.376;7.148;2023-03-25T06:40:28;8.00;26.90
10278;DHT22;5184;51.376;7.148;2023-03-25T06:42:55;8.00;99.90
10278;DHT22;5184;51.376;7.148;2023-03-25T06:45:22;8.10;99.90
10278;DHT22;5184;51.376;7.148;2023-03-25T06:47:48;8.10;99.90
10278;DHT22;5184;51.376;7.148;2023-03-25T06:50:15;8.10;99.90
10278;DHT22;5184;51.376;7.148;2023-03-25T06:52:41;8.10;99.90
10278;DHT22;5184;51.376;7.148;2023-03-25T06:55:08;8.10;99.90
10278;DHT22;5184;51.376;7.148;2023-03-25T06:57:35;7.90;1.00
10278;DHT22;5184;51.376;7.148;2023-03-25T07:00:04;7.70;1.00
10278;DHT22;5184;51.376;7.148;2023-03-25T07:02:32;7.60;99.90
10278;DHT22;5184;51.376;7.148;2023-03-25T07:04:59;7.60;99.90
10278;DHT22;5184;51.376;7.148;2023-03-25T07:07:26;7.50;99.90
10278;DHT22;5184;51.376;7.148;2023-03-25T07:09:52;7.40;99.90
10278;DHT22;5184;51.376;7.148;2023-03-25T07:12:19;7.50;99.90
10278;DHT22;5184;51.376;7.148;2023-03-25T07:14:51;7.50;99.90
10278;DHT22;5184;51.376;7.148;2023-03-25T07:17:16;7.50;99.90
10278;DHT22;5184;51.376;7.148;2023-03-25T07:19:43;7.50;99.90
10278;DHT22;5184;51.376;7.148;2023-03-25T07:22:10;7.70;99.90
10278;DHT22;5184;51.376;7.148;2023-03-25T07:24:36;7.70;99.90
10278;DHT22;5184;51.376;7.148;2023-03-25T07:27:03;7.80;99.90
10278;DHT22;5184;51.376;7.148;2023-03-25T07:29:29;7.80;99.90
10278;DHT22;5184;51.376;7.148;2023-03-25T07:31:56;7.90;93.60
10278;DHT22;5184;51.376;7.148;2023-03-25T07:34:23;8.00;81.10
10278;DHT22;5184;51.376;7.148;2023-03-25T07:36:49;8.10;14.90
10278;DHT22;5184;51.376;7.148;2023-03-25T07:39:16;8.10;1.00
10278;DHT22;5184;51.376;7.148;2023-03-25T07:41:43;8.20;1.00
10278;DHT22;5184;51.376;7.148;2023-03-25T07:44:09;8.30;1.00
10278;DHT22;5184;51.376;7.148;2023-03-25T07:46:36;8.30;1.00
10278;DHT22;5184;51.376;7.148;2023-03-25T07:49:02;8.30;1.00
10278;DHT22;5184;51.376;7.148;2023-03-25T07:51:29;8.30;1.00
10278;DHT22;5184;51.376;7.148;2023-03-25T07:53:56;8.20;1.00
10278;DHT22;5184;51.376;7.148;2023-03-25T07:56:22;8.20;1.00
10278;DHT22;5184;51.376;7.148;2023-03-25T07:58:49;8.30;99.90
10278;DHT22;5184;51.376;7.148;2023-03-25T08:01:18;8.20;99.90
10278;DHT22;5184;51.376;7.148;2023-03-25T08:03:44;8.30;99.90
10278;DHT22;5184;51.376;7.148;2023-03-25T08:06:12;8.30;1.00
10278;DHT22;5184;51.376;7.148;2023-03-25T08:08:40;8.30;1.00
10278;DHT22;5184;51.376;7.148;2023-03-25T08:11:07;8.40;99.90
10278;DHT22;5184;51.376;7.148;2023-03-25T08:13:34;8.30;99.90
10278;DHT22;5184;51.376;7.148;2023-03-25T08:16:01;8.30;55.80
10278;DHT22;5184;51.376;7.148;2023-03-25T08:18:27;8.40;1.00
10278;DHT22;5184;51.376;7.148;2023-03-25T08:20:55;8.30;99.90
10278;DHT22;5184;51.376;7.148;2023-03-25T08:23:22;8.30;1.00
10278;DHT22;5184;51.376;7.148;2023-03-25T08:25:49;8.40;1.00
10278;DHT22;5184;51.376;7.148;2023-03-25T08:28:17;8.50;1.00
10278;DHT22;5184;51.376;7.148;2023-03-25T08:30:43;8.50;1.00
10278;DHT22;5184;51.376;7.148;2023-03-25T08:33:10;8.60;1.00
10278;DHT22;5184;51.376;7.148;2023-03-25T08:35:37;8.70;99.90
10278;DHT22;5184;51.376;7.148;2023-03-25T08:38:03;8.70;99.90
10278;DHT22;5184;51.376;7.148;2023-03-25T08:40:30;8.80;99.90
10278;DHT22;5184;51.376;7.148;2023-03-25T08:42:57;9.00;99.90
10278;DHT22;5184;51.376;7.148;2023-03-25T08:45:23;9.10;99.90
10278;DHT22;5184;51.376;7.148;2023-03-25T08:47:50;9.20;99.90
10278;DHT22;5184;51.376;7.148;2023-03-25T08:50:16;9.10;93.20
10278;DHT22;5184;51.376;7.148;2023-03-25T08:52:44;9.10;99.90
10278;DHT22;5184;51.376;7.148;2023-03-25T08:55:10;9.10;99.90
10278;DHT22;5184;51.376;7.148;2023-03-25T08:57:38;9.20;99.90
10278;DHT22;5184;51.376;7.148;2023-03-25T09:00:06;9.30;1.00
10278;DHT22;5184;51.376;7.148;2023-03-25T09:02:37;9.30;1.00
10278;DHT22;5184;51.376;7.148;2023-03-25T09:05:04;9.30;19.60
10278;DHT22;5184;51.376;7.148;2023-03-25T09:07:31;9.30;4.20
10278;DHT22;5184;51.376;7.148;2023-03-25T09:09:58;9.20;99.90
10278;DHT22;5184;51.376;7.148;2023-03-25T09:12:24;9.40;1.00
10278;DHT22;5184;51.376;7.148;2023-03-25T09:14:51;9.50;1.00
10278;DHT22;5184;51.376;7.148;2023-03-25T09:17:17;9.50;1.00
10278;DHT22;5184;51.376;7.148;2023-03-25T09:19:44;9.50;12.80
10278;DHT22;5184;51.376;7.148;2023-03-25T09:22:11;9.60;94.00
10278;DHT22;5184;51.376;7.148;2023-03-25T09:24:37;9.50;99.90
10278;DHT22;5184;51.376;7.148;2023-03-25T09:27:04;9.50;1.00
10278;DHT22;5184;51.376;7.148;2023-03-25T09:29:31;9.50;1.00
10278;DHT22;5184;51.376;7.148;2023-03-25T09:31:57;9.50;1.00
10278;DHT22;5184;51.376;7.148;2023-03-25T09:34:25;9.70;99.90
10278;DHT22;5184;51.376;7.148;2023-03-25T09:36:51;9.70;99.90
10278;DHT22;5184;51.376;7.148;2023-03-25T09:39:18;9.80;21.90
10278;DHT22;5184;51.376;7.148;2023-03-25T09:41:52;9.80;1.00
10278;DHT22;5184;51.376;7.148;2023-03-25T09:44:15;9.80;99.90
10278;DHT22;5184;51.376;7.148;2023-03-25T09:46:40;9.80;99.90
10278;DHT22;5184;51.376;7.148;2023-03-25T09:49:10;9.80;99.90
10278;DHT22;5184;51.376;7.148;2023-03-25T09:51:34;9.70;99.90
10278;DHT22;5184;51.376;7.148;2023-03-25T09:54:03;9.70;99.90
10278;DHT22;5184;51.376;7.148;2023-03-25T09:56:28;9.70;1.00
10278;DHT22;5184;51.376;7.148;2023-03-25T09:58:56;9.70;1.00
10278;DHT22;5184;51.376;7.148;2023-03-25T10:01:38;9.60;99.90
10278;DHT22;5184;51.376;7.148;2023-03-25T10:04:14;9.60;1.00
10278;DHT22;5184;51.376;7.148;2023-03-25T10:06:42;9.70;99.90
10278;DHT22;5184;51.376;7.148;2023-03-25T10:09:14;9.90;1.00
10278;DHT22;5184;51.376;7.148;2023-03-25T10:14:18;10.00;18.50
10278;DHT22;5184;51.376;7.148;2023-03-25T10:22:17;10.20;99.90
10278;DHT22;5184;51.376;7.148;2023-03-25T10:24:47;10.20;1.00
10278;DHT22;5184;51.376;7.148;2023-03-25T10:27:14;10.20;1.00
10278;DHT22;5184;51.376;7.148;2023-03-25T10:29:43;10.20;1.00
10278;DHT22;5184;51.376;7.148;2023-03-25T10:32:15;10.40;99.90
10278;DHT22;5184;51.376;7.148;2023-03-25T10:34:42;10.30;1.00
10278;DHT22;5184;51.376;7.148;2023-03-25T10:37:09;10.30;1.00
10278;DHT22;5184;51.376;7.148;2023-03-25T10:39:35;10.30;1.00
10278;DHT22;5184;51.376;7.148;2023-03-25T10:42:09;10.40;99.90
10278;DHT22;5184;51.376;7.148;2023-03-25T10:44:29;10.90;99.90
10278;DHT22;5184;51.376;7.148;2023-03-25T10:47:00;11.00;7.80
10278;DHT22;5184;51.376;7.148;2023-03-25T10:49:26;11.00;2.90
10278;DHT22;5184;51.376;7.148;2023-03-25T10:51:52;10.70;1.00
10278;DHT22;5184;51.376;7.148;2023-03-25T10:54:20;10.70;99.90
10278;DHT22;5184;51.376;7.148;2023-03-25T10:56:49;10.70;99.90
10278;DHT22;5184;51.376;7.148;2023-03-25T10:59:19;10.80;99.90
10278;DHT22;5184;51.376;7.148;2023-03-25T11:01:43;10.90;28.40
10278;DHT22;5184;51.376;7.148;2023-03-25T11:04:11;10.90;99.90
10278;DHT22;5184;51.376;7.148;2023-03-25T11:06:38;10.60;1.00
10278;DHT22;5184;51.376;7.148;2023-03-25T11:09:21;10.30;1.00
10278;DHT22;5184;51.376;7.148;2023-03-25T11:11:43;10.20;99.90
10278;DHT22;5184;51.376;7.148;2023-03-25T11:14:10;10.10;3.80
10278;DHT22;5184;51.376;7.148;2023-03-25T11:16:46;9.60;2.60
10278;DHT22;5184;51.376;7.148;2023-03-25T11:19:35;9.60;1.00
10278;DHT22;5184;51.376;7.148;2023-03-25T11:22:06;9.30;99.90
10278;DHT22;5184;51.376;7.148;2023-03-25T11:24:30;9.40;1.00
10278;DHT22;5184;51.376;7.148;2023-03-25T11:26:56;9.70;1.00
10278;DHT22;5184;51.376;7.148;2023-03-25T11:29:24;9.80;99.90
10278;DHT22;5184;51.376;7.148;2023-03-25T11:34:36;9.80;1.00
10278;DHT22;5184;51.376;7.148;2023-03-25T11:39:38;9.60;1.00
10278;DHT22;5184;51.376;7.148;2023-03-25T11:42:13;9.40;1.00
10278;DHT22;5184;51.376;7.148;2023-03-25T11:44:37;9.30;99.90
10278;DHT22;5184;51.376;7.148;2023-03-25T11:47:05;9.20;1.00
10278;DHT22;5184;51.376;7.148;2023-03-25T11:49:33;9.10;1.00
10278;DHT22;5184;51.376;7.148;2023-03-25T11:51:58;8.90;32.70
10278;DHT22;5184;51.376;7.148;2023-03-25T11:54:24;8.90;25.80
10278;DHT22;5184;51.376;7.148;2023-03-25T11:56:51;8.90;99.90
10278;DHT22;5184;51.376;7.148;2023-03-25T11:59:26;8.90;99.90
10278;DHT22;5184;51.376;7.148;2023-03-25T12:01:58;9.10;99.90
10278;DHT22;5184;51.376;7.148;2023-03-25T12:04:19;9.20;99.90
10278;DHT22;5184;51.376;7.148;2023-03-25T12:06:52;9.60;99.90
10278;DHT22;5184;51.376;7.148;2023-03-25T12:09:18;9.80;99.90
10278;DHT22;5184;51.376;7.148;2023-03-25T12:12:09;9.90;99.90
10278;DHT22;5184;51.376;7.148;2023-03-25T12:17:17;9.80;99.90
10278;DHT22;5184;51.376;7.148;2023-03-25T12:22:24;9.30;1.00
10278;DHT22;5184;51.376;7.148;2023-03-25T12:25:09;9.30;1.00
10278;DHT22;5184;51.376;7.148;2023-03-25T12:27:45;9.30;99.90
10278;DHT22;5184;51.376;7.148;2023-03-25T12:30:15;9.50;1.00
10278;DHT22;5184;51.376;7.148;2023-03-25T12:32:47;9.50;1.00
10278;DHT22;5184;51.376;7.148;2023-03-25T12:35:17;9.70;1.00
10278;DHT22;5184;51.376;7.148;2023-03-25T12:38:04;9.70;1.00
10278;DHT22;5184;51.376;7.148;2023-03-25T12:40:32;9.80;1.00
10278;DHT22;5184;51.376;7.148;2023-03-25T12:44:07;9.90;99.90
10278;DHT22;5184;51.376;7.148;2023-03-25T12:45:49;10.10;99.90
10278;DHT22;5184;51.376;7.148;2023-03-25T12:48:18;10.10;99.90
10278;DHT22;5184;51.376;7.148;2023-03-25T12:56:05;10.50;60.90
10278;DHT22;5184;51.376;7.148;2023-03-25T12:58:40;10.50;27.60
10278;DHT22;5184;51.376;7.148;2023-03-25T13:01:12;10.80;99.90
10278;DHT22;5184;51.376;7.148;2023-03-25T13:03:41;10.80;1.00
10278;DHT22;5184;51.376;7.148;2023-03-25T13:06:13;10.90;1.00
10278;DHT22;5184;51.376;7.148;2023-03-25T13:08:37;10.90;99.90
10278;DHT22;5184;51.376;7.148;2023-03-25T13:11:05;11.10;5.90
10278;DHT22;5184;51.376;7.148;2023-03-25T13:13:29;11.20;99.90
10278;DHT22;5184;51.376;7.148;2023-03-25T13:16:03;11.40;99.90
10278;DHT22;5184;51.376;7.148;2023-03-25T13:18:33;11.40;99.90
10278;DHT22;5184;51.376;7.148;2023-03-25T13:21:05;11.50;90.70
10278;DHT22;5184;51.376;7.148;2023-03-25T13:23:30;11.50;1.00
10278;DHT22;5184;51.376;7.148;2023-03-25T13:26:00;11.40;1.00
10278;DHT22;5184;51.376;7.148;2023-03-25T13:28:27;11.10;99.90
10278;DHT22;5184;51.376;7.148;2023-03-25T13:30:53;10.70;49.20
10278;DHT22;5184;51.376;7.148;2023-03-25T13:33:25;10.50;93.50
10278;DHT22;5184;51.376;7.148;2023-03-25T13:35:53;10.50;66.20
10278;DHT22;5184;51.376;7.148;2023-03-25T13:38:22;10.30;1.00
10278;DHT22;5184;51.376;7.148;2023-03-25T13:40:50;10.00;99.90
10278;DHT22;5184;51.376;7.148;2023-03-25T13:43:18;9.90;99.90
10278;DHT22;5184;51.376;7.148;2023-03-25T13:46:01;9.80;99.90
10278;DHT22;5184;51.376;7.148;2023-03-25T13:48:29;9.80;1.00
10278;DHT22;5184;51.376;7.148;2023-03-25T13:51:00;9.70;1.00
10278;DHT22;5184;51.376;7.148;2023-03-25T13:53:24;9.80;1.00
10278;DHT22;5184;51.376;7.148;2023-03-25T13:56:07;9.90;99.90
10278;DHT22;5184;51.376;7.148;2023-03-25T13:58:33;10.00;99.90
10278;DHT22;5184;51.376;7.148;2023-03-25T14:03:39;9.80;1.00
10278;DHT22;5184;51.376;7.148;2023-03-25T14:06:10;9.80;99.90
10278;DHT22;5184;51.376;7.148;2023-03-25T14:08:41;9.80;99.90
10278;DHT22;5184;51.376;7.148;2023-03-25T14:11:20;9.80;99.90
10278;DHT22;5184;51.376;7.148;2023-03-25T14:13:54;9.70;99.90
10278;DHT22;5184;51.376;7.148;2023-03-25T14:16:23;9.90;99.90
10278;DHT22;5184;51.376;7.148;2023-03-25T14:18:49;10.00;1.00
10278;DHT22;5184;51.376;7.148;2023-03-25T14:26:50;10.10;1.00
10278;DHT22;5184;51.376;7.148;2023-03-25T14:29:23;10.00;99.90
10278;DHT22;5184;51.376;7.148;2023-03-25T14:32:00;9.80;99.90
10278;DHT22;5184;51.376;7.148;2023-03-25T14:34:25;9.70;1.00
10278;DHT22;5184;51.376;7.148;2023-03-25T14:37:14;9.50;1.00
10278;DHT22;5184;51.376;7.148;2023-03-25T14:39:37;9.30;99.90
10278;DHT22;5184;51.376;7.148;2023-03-25T14:42:11;9.20;1.00
10278;DHT22;5184;51.376;7.148;2023-03-25T14:44:41;9.10;99.90
10278;DHT22;5184;51.376;7.148;2023-03-25T14:47:28;9.10;99.90
10278;DHT22;5184;51.376;7.148;2023-03-25T14:52:38;8.90;99.90
10278;DHT22;5184;51.376;7.148;2023-03-25T14:55:08;8.80;1.00
10278;DHT22;5184;51.376;7.148;2023-03-25T14:57:38;8.70;1.00
10278;DHT22;5184;51.376;7.148;2023-03-25T15:00:02;8.50;99.90
10278;DHT22;5184;51.376;7.148;2023-03-25T15:02:30;8.50;99.90
10278;DHT22;5184;51.376;7.148;2023-03-25T15:05:22;8.40;99.90
10278;DHT22;5184;51.376;7.148;2023-03-25T15:07:52;8.40;99.90
10278;DHT22;5184;51.376;7.148;2023-03-25T15:10:20;8.40;99.90
10278;DHT22;5184;51.376;7.148;2023-03-25T15:12:47;8.40;99.90
10278;DHT22;5184;51.376;7.148;2023-03-25T15:17:46;8.30;99.90
10278;DHT22;5184;51.376;7.148;2023-03-25T15:20:26;8.30;99.90
10278;DHT22;5184;51.376;7.148;2023-03-25T15:22:39;8.20;99.90
10278;DHT22;5184;51.376;7.148;2023-03-25T15:25:10;8.20;99.90
10278;DHT22;5184;51.376;7.148;2023-03-25T15:27:57;8.20;99.90
10278;DHT22;5184;51.376;7.148;2023-03-25T15:33:32;8.20;99.90
10278;DHT22;5184;51.376;7.148;2023-03-25T15:36:03;8.20;99.90
10278;DHT22;5184;51.376;7.148;2023-03-25T15:38:31;8.20;99.90
10278;DHT22;5184;51.376;7.148;2023-03-25T15:43:58;8.40;1.00
10278;DHT22;5184;51.376;7.148;2023-03-25T15:49:07;8.40;1.00
10278;DHT22;5184;51.376;7.148;2023-03-25T15:51:45;8.40;27.40
10278;DHT22;5184;51.376;7.148;2023-03-25T15:54:19;8.60;10.30
10278;DHT22;5184;51.376;7.148;2023-03-25T15:56:44;8.80;50.10
10278;DHT22;5184;51.376;7.148;2023-03-25T15:59:21;8.70;1.00
10278;DHT22;5184;51.376;7.148;2023-03-25T16:01:41;8.70;1.00
10278;DHT22;5184;51.376;7.148;2023-03-25T16:04:12;8.70;1.00
10278;DHT22;5184;51.376;7.148;2023-03-25T16:06:39;8.70;6.70
10278;DHT22;5184;51.376;7.148;2023-03-25T16:09:05;8.60;1.00
10278;DHT22;5184;51.376;7.148;2023-03-25T16:11:32;8.50;1.00
10278;DHT22;5184;51.376;7.148;2023-03-25T16:14:01;8.50;91.90
10278;DHT22;5184;51.376;7.148;2023-03-25T16:16:27;8.50;88.20
10278;DHT22;5184;51.376;7.148;2023-03-25T16:18:53;8.50;35.10
10278;DHT22;5184;51.376;7.148;2023-03-25T16:21:20;8.60;9.10
10278;DHT22;5184;51.376;7.148;2023-03-25T16:23:50;9.00;78.00
10278;DHT22;5184;51.376;7.148;2023-03-25T16:26:14;10.50;99.90
10278;DHT22;5184;51.376;7.148;2023-03-25T16:28:41;10.50;97.60
10278;DHT22;5184;51.376;7.148;2023-03-25T16:31:28;10.40;1.00
10278;DHT22;5184;51.376;7.148;2023-03-25T16:33:53;10.40;1.00
10278;DHT22;5184;51.376;7.148;2023-03-25T16:36:19;9.80;99.90
10278;DHT22;5184;51.376;7.148;2023-03-25T16:38:46;9.60;1.00
10278;DHT22;5184;51.376;7.148;2023-03-25T16:41:13;10.10;1.00
10278;DHT22;5184;51.376;7.148;2023-03-25T16:43:40;9.70;1.00
10278;DHT22;5184;51.376;7.148;2023-03-25T16:46:07;9.60;1.00
10278;DHT22;5184;51.376;7.148;2023-03-25T16:48:37;9.40;1.00
10278;DHT22;5184;51.376;7.148;2023-03-25T16:51:10;9.30;1.00
10278;DHT22;5184;51.376;7.148;2023-03-25T16:53:35;9.20;99.90
10278;DHT22;5184;51.376;7.148;2023-03-25T16:56:19;9.10;99.90
10278;DHT22;5184;51.376;7.148;2023-03-25T16:58:54;9.00;99.90
10278;DHT22;5184;51.376;7.148;2023-03-25T17:01:16;9.00;99.90
10278;DHT22;5184;51.376;7.148;2023-03-25T17:03:43;9.00;99.90